createdAt,value
2018-12-23T00:00:16.907Z,25.10
2018-12-23T00:00:52.971Z,24.23
2018-12-23T00:01:29.009Z,31.37
2018-12-23T00:02:05.433Z,25.85
2018-12-23T00:02:41.435Z,25.95
2018-12-23T00:03:17.483Z,26.25
2018-12-23T00:03:53.519Z,26.65
2018-12-23T00:04:29.720Z,23.90
2018-12-23T00:05:11.442Z,24.95
2018-12-23T00:05:44.221Z,24.02
2018-12-23T00:06:20.726Z,27.58
2018-12-23T00:06:56.761Z,27.10
2018-12-23T00:07:32.783Z,27.13
2018-12-23T00:08:08.833Z,28.47
2018-12-23T00:08:44.851Z,31.80
2018-12-23T00:09:20.886Z,29.05
2018-12-23T00:09:57.420Z,33.35
2018-12-23T00:10:33.849Z,31.15
2018-12-23T00:11:09.875Z,36.15
2018-12-23T00:11:45.980Z,31.65
2018-12-23T00:12:22.163Z,27.02
2018-12-23T00:12:58.203Z,28.00
2018-12-23T00:13:34.315Z,30.43
2018-12-23T00:14:10.345Z,33.20
2018-12-23T00:14:46.403Z,32.93
2018-12-23T00:15:22.443Z,31.70
2018-12-23T00:15:58.474Z,33.98
2018-12-23T00:16:34.581Z,32.00
2018-12-23T00:17:10.608Z,34.80
2018-12-23T00:17:47.112Z,36.77
2018-12-23T00:18:23.175Z,39.13
2018-12-23T00:18:59.639Z,33.05
2018-12-23T00:19:36.070Z,35.28
2018-12-23T00:20:12.103Z,39.92
2018-12-23T00:20:48.535Z,37.93
2018-12-23T00:21:24.940Z,35.52
2018-12-23T00:22:00.979Z,36.45
2018-12-23T00:22:37.033Z,39.55
2018-12-23T00:23:13.080Z,36.58
2018-12-23T00:23:49.123Z,39.90
2018-12-23T00:24:25.167Z,38.70
2018-12-23T00:25:01.193Z,35.40
2018-12-23T00:25:37.216Z,36.28
2018-12-23T00:26:13.237Z,33.38
2018-12-23T00:26:49.249Z,34.13
2018-12-23T00:27:25.403Z,39.65
2018-12-23T00:28:01.774Z,37.98
2018-12-23T00:28:37.839Z,33.35
2018-12-23T00:29:13.884Z,38.05
2018-12-23T00:29:56.558Z,35.00
2018-12-23T00:30:32.575Z,35.68
2018-12-23T00:31:08.602Z,40.23
2018-12-23T00:31:44.596Z,38.15
2018-12-23T00:32:21.047Z,34.15
2018-12-23T00:32:57.122Z,38.80
2018-12-23T00:33:33.162Z,37.50
2018-12-23T00:34:09.596Z,36.98
2018-12-23T00:34:45.971Z,34.38
2018-12-23T00:35:22.428Z,39.98
2018-12-23T00:35:59.289Z,37.00
2018-12-23T00:36:35.357Z,41.08
2018-12-23T00:37:11.389Z,36.75
2018-12-23T00:37:47.827Z,39.53
2018-12-23T00:38:24.296Z,36.35
2018-12-23T00:39:00.360Z,40.05
2018-12-23T00:39:36.409Z,41.53
2018-12-23T00:40:12.451Z,36.58
2018-12-23T00:40:48.489Z,35.83
2018-12-23T00:41:24.498Z,35.73
2018-12-23T00:42:00.561Z,34.13
2018-12-23T00:42:36.993Z,39.10
2018-12-23T00:43:13.037Z,31.70
2018-12-23T00:43:49.103Z,32.53
2018-12-23T00:44:25.514Z,33.53
2018-12-23T00:45:04.912Z,33.90
2018-12-23T00:45:40.979Z,37.93
2018-12-23T00:46:17.332Z,32.60
2018-12-23T00:46:53.392Z,33.35
2018-12-23T00:47:29.735Z,35.20
2018-12-23T00:48:05.747Z,37.08
2018-12-23T00:48:42.240Z,36.60
2018-12-23T00:49:18.338Z,35.78
2018-12-23T00:49:54.614Z,40.33
2018-12-23T00:50:31.819Z,29.07
2018-12-23T00:51:08.253Z,34.67
2018-12-23T00:51:44.292Z,35.23
2018-12-23T00:52:20.331Z,36.25
2018-12-23T00:52:56.745Z,34.13
2018-12-23T00:53:32.813Z,35.48
2018-12-23T00:54:08.827Z,33.98
2018-12-23T00:54:44.869Z,29.12
2018-12-23T00:55:21.495Z,32.17
2018-12-23T00:55:57.917Z,35.75
2018-12-23T00:56:34.337Z,32.45
2018-12-23T00:57:10.363Z,33.23
2018-12-23T00:57:46.442Z,31.95
2018-12-23T00:58:22.459Z,25.72
2018-12-23T00:58:59.491Z,26.95
2018-12-23T00:59:35.525Z,32.03
2018-12-23T01:00:12.771Z,29.20
2018-12-23T01:00:49.221Z,29.77
2018-12-23T01:01:25.651Z,35.20
2018-12-23T01:02:01.699Z,35.78
2018-12-23T01:02:37.741Z,31.68
2018-12-23T01:03:14.575Z,36.15
2018-12-23T01:03:51.015Z,33.88
2018-12-23T01:04:27.056Z,29.50
2018-12-23T01:05:03.719Z,37.13
2018-12-23T01:05:39.763Z,33.02
2018-12-23T01:06:15.875Z,34.13
2018-12-23T01:06:51.929Z,32.70
2018-12-23T01:07:28.009Z,35.43
2018-12-23T01:08:04.499Z,33.70
2018-12-23T01:08:41.141Z,28.07
2018-12-23T01:09:17.562Z,34.55
2018-12-23T01:09:53.592Z,29.10
2018-12-23T01:10:29.625Z,29.40
2018-12-23T01:11:05.663Z,28.92
2018-12-23T01:11:42.067Z,29.18
2018-12-23T01:12:18.112Z,30.15
2018-12-23T01:12:54.445Z,31.10
2018-12-23T01:13:30.590Z,36.30
2018-12-23T01:14:06.649Z,33.28
2018-12-23T01:14:43.021Z,34.50
2018-12-23T01:15:19.104Z,25.57
2018-12-23T01:15:55.161Z,28.92
2018-12-23T01:16:31.613Z,30.45
2018-12-23T01:17:07.865Z,30.77
2018-12-23T01:17:43.908Z,34.35
2018-12-23T01:18:19.996Z,31.02
2018-12-23T01:18:56.026Z,34.00
2018-12-23T01:19:32.099Z,33.02
2018-12-23T01:20:09.393Z,31.68
2018-12-23T01:20:45.734Z,32.38
2018-12-23T01:21:22.145Z,31.35
2018-12-23T01:21:58.627Z,31.37
2018-12-23T01:22:34.736Z,30.65
2018-12-23T01:23:10.798Z,32.23
2018-12-23T01:23:46.943Z,29.65
2018-12-23T01:24:23.626Z,32.53
2018-12-23T01:24:59.692Z,30.50
2018-12-23T01:25:36.127Z,25.82
2018-12-23T01:26:12.550Z,31.10
2018-12-23T01:26:48.563Z,30.97
2018-12-23T01:27:24.626Z,28.30
2018-12-23T01:28:00.691Z,26.97
2018-12-23T01:28:36.708Z,33.48
2018-12-23T01:29:13.538Z,31.90
2018-12-23T01:29:49.599Z,26.55
2018-12-23T01:30:25.697Z,26.37
2018-12-23T01:31:02.787Z,28.17
2018-12-23T01:31:38.805Z,33.02
2018-12-23T01:32:15.755Z,27.13
2018-12-23T01:32:51.840Z,25.92
2018-12-23T01:33:27.837Z,29.72
2018-12-23T01:34:05.425Z,28.75
2018-12-23T01:34:41.848Z,30.97
2018-12-23T01:35:17.898Z,29.77
2018-12-23T01:35:54.211Z,30.85
2018-12-23T01:36:30.212Z,29.27
2018-12-23T01:37:06.237Z,27.73
2018-12-23T01:37:42.255Z,26.82
2018-12-23T01:38:18.761Z,29.45
2018-12-23T01:38:54.772Z,22.22
2018-12-23T01:39:31.479Z,25.00
2018-12-23T01:40:08.334Z,25.40
2018-12-23T01:40:45.116Z,27.90
2018-12-23T01:41:21.136Z,28.45
2018-12-23T01:41:57.192Z,25.72
2018-12-23T01:42:33.611Z,24.30
2018-12-23T01:43:09.658Z,29.12
2018-12-23T01:43:45.696Z,27.48
2018-12-23T01:44:21.768Z,23.45
2018-12-23T01:44:57.896Z,26.97
2018-12-23T01:45:34.306Z,28.90
2018-12-23T01:46:10.314Z,27.65
2018-12-23T01:46:46.322Z,28.25
2018-12-23T01:47:22.358Z,30.50
2018-12-23T01:47:58.392Z,26.07
2018-12-23T01:48:35.406Z,26.62
2018-12-23T01:49:11.817Z,23.27
2018-12-23T01:49:47.862Z,22.82
2018-12-23T01:50:24.241Z,24.37
2018-12-23T01:51:00.768Z,23.45
2018-12-23T01:51:37.176Z,24.67
2018-12-23T01:52:13.682Z,29.45
2018-12-23T01:52:50.103Z,24.85
2018-12-23T01:53:26.660Z,24.00
2018-12-23T01:54:03.114Z,26.52
2018-12-23T01:54:39.517Z,22.70
2018-12-23T01:55:16.004Z,22.42
2018-12-23T01:55:52.039Z,28.25
2018-12-23T01:56:28.888Z,20.85
2018-12-23T01:57:05.708Z,22.40
2018-12-23T01:57:41.768Z,21.70
2018-12-23T01:58:18.202Z,21.93
2018-12-23T01:58:54.230Z,21.73
2018-12-23T01:59:30.252Z,20.60
2018-12-23T02:00:09.490Z,22.82
2018-12-23T02:00:45.530Z,28.10
2018-12-23T02:01:21.620Z,20.43
2018-12-23T02:01:58.050Z,19.92
2018-12-23T02:02:34.126Z,27.32
2018-12-23T02:03:10.154Z,23.12
2018-12-23T02:03:47.392Z,21.60
2018-12-23T02:04:23.740Z,25.52
2018-12-23T02:05:00.283Z,21.93
2018-12-23T02:05:36.628Z,19.00
2018-12-23T02:06:13.452Z,19.55
2018-12-23T02:06:50.181Z,20.85
2018-12-23T02:07:26.212Z,21.50
2018-12-23T02:08:02.630Z,21.87
2018-12-23T02:08:38.658Z,23.95
2018-12-23T02:09:14.694Z,22.50
2018-12-23T02:09:50.959Z,21.55
2018-12-23T02:10:27.414Z,20.77
2018-12-23T02:11:03.912Z,19.95
2018-12-23T02:11:40.316Z,23.05
2018-12-23T02:12:16.332Z,19.02
2018-12-23T02:12:52.719Z,21.82
2018-12-23T02:13:29.152Z,19.65
2018-12-23T02:14:05.616Z,21.48
2018-12-23T02:14:41.645Z,20.37
2018-12-23T02:15:17.672Z,18.52
2018-12-23T02:15:54.116Z,17.90
2018-12-23T02:16:30.202Z,18.40
2018-12-23T02:17:06.635Z,20.85
2018-12-23T02:17:43.092Z,18.07
2018-12-23T02:18:19.530Z,17.17
2018-12-23T02:18:55.995Z,20.52
2018-12-23T02:19:32.400Z,20.70
2018-12-23T02:20:09.239Z,19.07
2018-12-23T02:20:45.680Z,21.90
2018-12-23T02:21:22.135Z,20.88
2018-12-23T02:21:58.208Z,16.42
2018-12-23T02:22:34.635Z,18.50
2018-12-23T02:23:10.686Z,21.07
2018-12-23T02:23:46.747Z,21.35
2018-12-23T02:24:22.804Z,19.17
2018-12-23T02:24:58.878Z,20.85
2018-12-23T02:25:35.359Z,23.50
2018-12-23T02:26:11.606Z,20.92
2018-12-23T02:26:47.667Z,20.25
2018-12-23T02:27:24.089Z,20.95
2018-12-23T02:28:00.148Z,23.83
2018-12-23T02:28:36.199Z,19.32
2018-12-23T02:29:12.609Z,23.55
2018-12-23T02:29:49.032Z,20.88
2018-12-23T02:30:25.052Z,19.07
2018-12-23T02:31:01.130Z,24.65
2018-12-23T02:31:37.154Z,21.60
2018-12-23T02:32:13.201Z,21.35
2018-12-23T02:32:49.212Z,21.27
2018-12-23T02:33:25.238Z,20.35
2018-12-23T02:34:02.077Z,19.05
2018-12-23T02:34:38.440Z,22.25
2018-12-23T02:35:14.841Z,19.90
2018-12-23T02:35:55.426Z,21.42
2018-12-23T02:36:30.035Z,24.60
2018-12-23T02:37:06.465Z,26.12
2018-12-23T02:37:42.893Z,22.32
2018-12-23T02:38:19.774Z,23.52
2018-12-23T02:38:57.605Z,20.57
2018-12-23T02:39:34.537Z,20.55
2018-12-23T02:40:10.901Z,23.15
2018-12-23T02:40:46.920Z,19.85
2018-12-23T02:41:31.284Z,24.72
2018-12-23T02:42:01.444Z,22.45
2018-12-23T02:42:37.430Z,22.67
2018-12-23T02:43:13.872Z,22.13
2018-12-23T02:43:49.883Z,25.12
2018-12-23T02:44:26.246Z,24.57
2018-12-23T02:45:02.707Z,22.70
2018-12-23T02:45:39.268Z,22.80
2018-12-23T02:46:15.569Z,22.80
2018-12-23T02:46:52.055Z,21.87
2018-12-23T02:47:28.440Z,21.23
2018-12-23T02:48:04.859Z,25.80
2018-12-23T02:48:40.915Z,22.37
2018-12-23T02:49:16.959Z,22.30
2018-12-23T02:49:53.388Z,22.22
2018-12-23T02:50:29.397Z,23.32
2018-12-23T02:51:06.116Z,23.50
2018-12-23T02:51:42.636Z,22.62
2018-12-23T02:52:19.354Z,21.60
2018-12-23T02:52:55.426Z,23.27
2018-12-23T02:53:31.446Z,20.60
2018-12-23T02:54:07.485Z,24.32
2018-12-23T02:54:43.610Z,20.02
2018-12-23T02:55:19.628Z,25.20
2018-12-23T02:55:55.666Z,18.67
2018-12-23T02:56:31.713Z,23.80
2018-12-23T02:57:07.761Z,23.52
2018-12-23T02:57:43.784Z,23.32
2018-12-23T02:58:19.956Z,27.58
2018-12-23T02:58:55.980Z,20.50
2018-12-23T02:59:31.971Z,27.05
2018-12-23T03:00:09.097Z,23.80
2018-12-23T03:00:45.471Z,22.30
2018-12-23T03:01:21.487Z,22.50
2018-12-23T03:01:58.304Z,23.62
2018-12-23T03:02:34.331Z,25.17
2018-12-23T03:03:10.406Z,24.52
2018-12-23T03:03:46.409Z,25.08
2018-12-23T03:04:22.494Z,26.10
2018-12-23T03:04:58.982Z,20.92
2018-12-23T03:05:35.011Z,22.90
2018-12-23T03:06:11.433Z,23.75
2018-12-23T03:06:47.832Z,24.80
2018-12-23T03:07:24.302Z,24.95
2018-12-23T03:08:00.345Z,23.15
2018-12-23T03:08:36.773Z,23.95
2018-12-23T03:09:12.789Z,24.92
2018-12-23T03:09:49.209Z,22.95
2018-12-23T03:10:25.229Z,25.25
2018-12-23T03:11:01.237Z,23.80
2018-12-23T03:11:37.892Z,23.90
2018-12-23T03:12:14.301Z,24.37
2018-12-23T03:12:50.768Z,24.55
2018-12-23T03:13:27.428Z,26.42
2018-12-23T03:14:04.275Z,21.37
2018-12-23T03:14:40.338Z,23.05
2018-12-23T03:15:16.792Z,21.97
2018-12-23T03:15:52.863Z,21.68
2018-12-23T03:16:29.340Z,25.32
2018-12-23T03:17:06.260Z,22.98
2018-12-23T03:17:42.771Z,23.15
2018-12-23T03:18:18.837Z,21.37
2018-12-23T03:18:54.913Z,26.82
2018-12-23T03:19:30.983Z,26.55
2018-12-23T03:20:07.888Z,21.25
2018-12-23T03:20:43.961Z,22.67
2018-12-23T03:21:20.400Z,24.27
2018-12-23T03:21:56.847Z,23.55
2018-12-23T03:22:33.313Z,22.90
2018-12-23T03:23:09.781Z,22.37
2018-12-23T03:23:45.827Z,22.37
2018-12-23T03:24:22.366Z,25.65
2018-12-23T03:24:58.426Z,21.35
2018-12-23T03:25:34.472Z,22.70
2018-12-23T03:26:10.516Z,22.95
2018-12-23T03:26:46.584Z,26.30
2018-12-23T03:27:22.657Z,25.50
2018-12-23T03:27:59.515Z,25.20
2018-12-23T03:28:35.563Z,29.10
2018-12-23T03:29:11.643Z,23.73
2018-12-23T03:29:47.707Z,22.70
2018-12-23T03:30:23.766Z,24.77
2018-12-23T03:30:59.814Z,25.55
2018-12-23T03:31:36.232Z,23.07
2018-12-23T03:32:12.301Z,24.90
2018-12-23T03:32:48.712Z,25.55
2018-12-23T03:33:25.191Z,26.90
2018-12-23T03:34:01.226Z,25.97
2018-12-23T03:34:37.598Z,24.92
2018-12-23T03:35:13.647Z,23.77
2018-12-23T03:35:50.109Z,24.37
2018-12-23T03:36:26.967Z,25.23
2018-12-23T03:37:03.931Z,23.50
2018-12-23T03:37:39.974Z,20.10
2018-12-23T03:38:16.064Z,24.12
2018-12-23T03:38:52.355Z,25.62
2018-12-23T03:39:28.400Z,28.55
2018-12-23T03:40:05.593Z,28.40
2018-12-23T03:40:42.095Z,22.05
2018-12-23T03:41:18.175Z,24.55
2018-12-23T03:41:54.647Z,25.75
2018-12-23T03:42:31.151Z,26.25
2018-12-23T03:43:07.233Z,22.98
2018-12-23T03:43:43.720Z,22.25
2018-12-23T03:44:19.795Z,23.50
2018-12-23T03:44:56.279Z,27.10
2018-12-23T03:45:32.988Z,26.68
2018-12-23T03:46:09.289Z,24.60
2018-12-23T03:46:45.749Z,27.05
2018-12-23T03:47:21.779Z,25.77
2018-12-23T03:47:58.286Z,24.05
2018-12-23T03:48:34.320Z,28.40
2018-12-23T03:49:10.369Z,24.87
2018-12-23T03:49:52.759Z,25.30
2018-12-23T03:50:28.804Z,25.80
2018-12-23T03:51:05.233Z,24.95
2018-12-23T03:51:41.755Z,27.05
2018-12-23T03:52:17.800Z,26.70
2018-12-23T03:52:53.864Z,26.68
2018-12-23T03:53:29.926Z,25.40
2018-12-23T03:54:05.989Z,27.87
2018-12-23T03:54:42.283Z,26.75
2018-12-23T03:55:18.352Z,24.70
2018-12-23T03:55:54.483Z,23.62
2018-12-23T03:56:30.499Z,24.23
2018-12-23T03:57:06.554Z,25.10
2018-12-23T03:57:42.589Z,31.17
2018-12-23T03:58:19.448Z,23.45
2018-12-23T03:58:55.891Z,25.50
2018-12-23T03:59:32.752Z,24.65
2018-12-23T04:00:09.910Z,25.15
2018-12-23T04:00:45.957Z,25.48
2018-12-23T04:01:22.021Z,23.52
2018-12-23T04:01:58.133Z,23.52
2018-12-23T04:02:34.192Z,25.88
2018-12-23T04:03:10.644Z,23.02
2018-12-23T04:03:46.829Z,25.72
2018-12-23T04:04:22.873Z,27.32
2018-12-23T04:04:59.535Z,25.82
2018-12-23T04:05:35.558Z,26.12
2018-12-23T04:06:11.647Z,25.25
2018-12-23T04:06:47.711Z,23.40
2018-12-23T04:07:24.165Z,23.38
2018-12-23T04:08:00.211Z,27.05
2018-12-23T04:08:36.279Z,23.30
2018-12-23T04:09:12.450Z,22.48
2018-12-23T04:09:49.200Z,24.12
2018-12-23T04:10:25.239Z,30.08
2018-12-23T04:11:01.273Z,26.27
2018-12-23T04:11:37.721Z,24.65
2018-12-23T04:12:13.767Z,27.58
2018-12-23T04:12:49.813Z,26.30
2018-12-23T04:13:25.905Z,24.40
2018-12-23T04:14:01.981Z,28.05
2018-12-23T04:14:38.049Z,23.38
2018-12-23T04:15:14.466Z,24.23
2018-12-23T04:15:50.891Z,25.85
2018-12-23T04:16:27.087Z,24.25
2018-12-23T04:17:03.170Z,24.45
2018-12-23T04:17:39.290Z,24.70
2018-12-23T04:18:15.322Z,22.40
2018-12-23T04:18:51.420Z,26.00
2018-12-23T04:19:27.459Z,27.07
2018-12-23T04:20:04.423Z,24.23
2018-12-23T04:20:40.660Z,28.15
2018-12-23T04:21:17.129Z,27.65
2018-12-23T04:21:53.175Z,27.62
2018-12-23T04:22:29.228Z,25.88
2018-12-23T04:23:05.293Z,26.10
2018-12-23T04:23:41.360Z,26.60
2018-12-23T04:24:17.394Z,24.43
2018-12-23T04:24:53.438Z,23.00
2018-12-23T04:25:29.498Z,25.52
2018-12-23T04:26:05.592Z,21.62
2018-12-23T04:26:41.615Z,25.05
2018-12-23T04:27:18.071Z,22.70
2018-12-23T04:27:54.109Z,24.37
2018-12-23T04:28:30.156Z,25.10
2018-12-23T04:29:06.209Z,29.67
2018-12-23T04:29:42.664Z,30.32
2018-12-23T04:30:19.121Z,24.00
2018-12-23T04:30:55.161Z,27.82
2018-12-23T04:31:31.562Z,27.35
2018-12-23T04:32:08.238Z,28.62
2018-12-23T04:32:44.272Z,27.95
2018-12-23T04:33:20.299Z,25.05
2018-12-23T04:33:56.375Z,27.85
2018-12-23T04:34:32.426Z,24.85
2018-12-23T04:35:08.484Z,25.52
2018-12-23T04:35:45.194Z,28.12
2018-12-23T04:36:21.225Z,27.77
2018-12-23T04:36:57.237Z,27.45
2018-12-23T04:37:33.645Z,32.67
2018-12-23T04:38:09.714Z,29.87
2018-12-23T04:38:46.154Z,31.00
2018-12-23T04:39:22.590Z,28.77
2018-12-23T04:39:58.632Z,30.75
2018-12-23T04:40:34.678Z,32.15
2018-12-23T04:41:11.098Z,29.92
2018-12-23T04:41:47.120Z,30.20
2018-12-23T04:42:23.151Z,30.35
2018-12-23T04:42:59.613Z,30.60
2018-12-23T04:43:36.140Z,29.77
2018-12-23T04:44:12.205Z,32.90
2018-12-23T04:44:48.286Z,31.42
2018-12-23T04:45:24.773Z,33.28
2018-12-23T04:46:00.893Z,30.65
2018-12-23T04:46:37.022Z,36.42
2018-12-23T04:47:13.072Z,33.80
2018-12-23T04:47:49.135Z,31.48
2018-12-23T04:48:25.464Z,32.05
2018-12-23T04:49:03.502Z,29.70
2018-12-23T04:49:43.220Z,35.92
2018-12-23T04:50:19.496Z,35.05
2018-12-23T04:50:55.519Z,34.83
2018-12-23T04:51:31.582Z,34.03
2018-12-23T04:52:07.589Z,39.40
2018-12-23T04:52:44.042Z,36.85
2018-12-23T04:53:20.042Z,33.35
2018-12-23T04:53:56.457Z,34.70
2018-12-23T04:54:32.504Z,40.30
2018-12-23T04:55:08.967Z,33.28
2018-12-23T04:55:45.397Z,37.42
2018-12-23T04:56:21.427Z,41.68
2018-12-23T04:56:57.440Z,43.35
2018-12-23T04:57:33.480Z,40.25
2018-12-23T04:58:09.522Z,38.48
2018-12-23T04:58:45.995Z,40.75
2018-12-23T04:59:22.433Z,41.45
2018-12-23T04:59:58.906Z,34.95
2018-12-23T05:00:34.954Z,35.30
2018-12-23T05:01:11.010Z,42.67
2018-12-23T05:01:47.456Z,41.02
2018-12-23T05:02:23.522Z,39.05
2018-12-23T05:02:59.558Z,33.67
2018-12-23T05:03:42.517Z,38.48
2018-12-23T05:04:13.656Z,39.20
2018-12-23T05:04:49.709Z,40.55
2018-12-23T05:05:25.754Z,46.55
2018-12-23T05:06:01.800Z,42.43
2018-12-23T05:06:43.224Z,34.67
2018-12-23T05:07:15.796Z,40.15
2018-12-23T05:07:51.826Z,45.83
2018-12-23T05:08:27.857Z,41.33
2018-12-23T05:09:06.294Z,43.60
2018-12-23T05:09:42.342Z,46.20
2018-12-23T05:10:18.792Z,39.40
2018-12-23T05:10:54.800Z,38.25
2018-12-23T05:11:31.533Z,39.27
2018-12-23T05:12:07.958Z,38.33
2018-12-23T05:12:43.966Z,43.15
2018-12-23T05:13:20.025Z,42.60
2018-12-23T05:13:56.064Z,41.20
2018-12-23T05:14:32.103Z,39.13
2018-12-23T05:15:08.126Z,48.45
2018-12-23T05:15:44.550Z,41.28
2018-12-23T05:16:21.010Z,45.05
2018-12-23T05:16:57.028Z,39.13
2018-12-23T05:17:33.057Z,43.75
2018-12-23T05:18:09.107Z,45.00
2018-12-23T05:18:45.468Z,41.98
2018-12-23T05:19:21.487Z,44.15
2018-12-23T05:19:57.950Z,39.03
2018-12-23T05:20:33.986Z,42.62
2018-12-23T05:21:10.013Z,44.73
2018-12-23T05:21:46.030Z,45.43
2018-12-23T05:22:22.201Z,40.45
2018-12-23T05:22:58.630Z,45.75
2018-12-23T05:23:34.670Z,40.23
2018-12-23T05:24:10.720Z,40.40
2018-12-23T05:24:46.786Z,41.50
2018-12-23T05:25:23.562Z,43.00
2018-12-23T05:25:59.599Z,45.35
2018-12-23T05:26:35.591Z,45.10
2018-12-23T05:27:11.614Z,35.48
2018-12-23T05:27:47.681Z,40.75
2018-12-23T05:28:23.685Z,36.13
2018-12-23T05:28:59.704Z,38.73
2018-12-23T05:29:36.167Z,41.37
2018-12-23T05:30:12.236Z,44.05
2018-12-23T05:30:48.267Z,39.45
2018-12-23T05:31:24.321Z,41.92
2018-12-23T05:32:00.351Z,38.80
2018-12-23T05:32:36.394Z,40.10
2018-12-23T05:33:12.424Z,39.35
2018-12-23T05:33:48.848Z,35.50
2018-12-23T05:34:24.870Z,35.58
2018-12-23T05:35:01.367Z,35.75
2018-12-23T05:35:37.410Z,34.27
2018-12-23T05:36:13.439Z,40.88
2018-12-23T05:36:52.602Z,34.08
2018-12-23T05:37:27.923Z,35.30
2018-12-23T05:38:04.334Z,37.13
2018-12-23T05:38:40.745Z,35.92
2018-12-23T05:39:18.044Z,34.95
2018-12-23T05:39:54.068Z,38.75
2018-12-23T05:40:30.110Z,34.58
2018-12-23T05:41:06.142Z,39.40
2018-12-23T05:41:42.170Z,36.15
2018-12-23T05:42:18.217Z,31.17
2018-12-23T05:42:54.263Z,37.23
2018-12-23T05:43:30.284Z,34.67
2018-12-23T05:44:06.310Z,40.08
2018-12-23T05:44:42.748Z,34.27
2018-12-23T05:45:18.751Z,35.15
2018-12-23T05:45:54.822Z,35.10
2018-12-23T05:46:30.839Z,33.92
2018-12-23T05:47:06.863Z,39.30
2018-12-23T05:47:42.899Z,31.12
2018-12-23T05:48:19.332Z,35.48
2018-12-23T05:48:55.373Z,35.00
2018-12-23T05:49:31.790Z,39.00
2018-12-23T05:50:08.636Z,37.30
2018-12-23T05:50:45.459Z,38.67
2018-12-23T05:51:21.580Z,38.05
2018-12-23T05:51:58.083Z,37.55
2018-12-23T05:52:34.990Z,32.63
2018-12-23T05:53:11.020Z,36.25
2018-12-23T05:53:47.066Z,38.65
2018-12-23T05:54:23.486Z,39.08
2018-12-23T05:54:59.535Z,34.85
2018-12-23T05:55:34.698Z,37.23
2018-12-23T05:56:10.732Z,35.80
2018-12-23T05:56:46.752Z,37.25
2018-12-23T05:57:23.209Z,33.85
2018-12-23T05:57:59.306Z,36.58
2018-12-23T05:58:35.341Z,32.50
2018-12-23T05:59:11.392Z,39.33
2018-12-23T05:59:47.531Z,35.60
2018-12-23T06:00:24.189Z,30.88
2018-12-23T06:01:00.630Z,29.92
2018-12-23T06:01:36.675Z,29.92
2018-12-23T06:02:12.694Z,39.10
2018-12-23T06:02:49.141Z,35.08
2018-12-23T06:03:25.556Z,39.67
2018-12-23T06:04:01.628Z,33.38
2018-12-23T06:04:37.660Z,34.40
2018-12-23T06:05:13.692Z,37.60
2018-12-23T06:05:49.726Z,30.50
2018-12-23T06:06:25.787Z,35.20
2018-12-23T06:07:02.232Z,31.33
2018-12-23T06:07:38.264Z,30.75
2018-12-23T06:08:14.307Z,34.80
2018-12-23T06:08:50.361Z,32.15
2018-12-23T06:09:26.585Z,32.45
2018-12-23T06:10:02.872Z,31.35
2018-12-23T06:10:38.914Z,33.63
2018-12-23T06:11:15.350Z,30.95
2018-12-23T06:11:51.376Z,34.08
2018-12-23T06:12:27.808Z,30.27
2018-12-23T06:13:04.192Z,30.77
2018-12-23T06:13:40.199Z,30.15
2018-12-23T06:14:16.259Z,25.80
2018-12-23T06:14:52.257Z,33.33
2018-12-23T06:15:28.681Z,26.90
2018-12-23T06:16:05.131Z,28.00
2018-12-23T06:16:41.194Z,34.18
2018-12-23T06:17:17.214Z,29.10
2018-12-23T06:17:53.262Z,29.90
2018-12-23T06:18:29.286Z,29.48
2018-12-23T06:19:05.341Z,25.97
2018-12-23T06:19:41.426Z,32.13
2018-12-23T06:20:17.453Z,26.70
2018-12-23T06:20:53.526Z,27.52
2018-12-23T06:21:29.996Z,28.17
2018-12-23T06:22:06.060Z,28.35
2018-12-23T06:22:42.088Z,26.97
2018-12-23T06:23:18.132Z,26.20
2018-12-23T06:23:54.191Z,24.57
2018-12-23T06:24:30.654Z,25.70
2018-12-23T06:25:08.671Z,24.35
2018-12-23T06:25:45.463Z,25.97
2018-12-23T06:26:21.552Z,25.60
2018-12-23T06:26:58.156Z,27.70
2018-12-23T06:27:34.224Z,23.32
2018-12-23T06:28:10.302Z,28.60
2018-12-23T06:28:46.394Z,22.50
2018-12-23T06:29:22.470Z,26.12
2018-12-23T06:29:58.518Z,24.25
2018-12-23T06:30:34.580Z,27.75
2018-12-23T06:31:11.036Z,25.80
2018-12-23T06:31:47.114Z,24.77
2018-12-23T06:32:23.176Z,25.37
2018-12-23T06:32:59.202Z,25.82
2018-12-23T06:33:35.228Z,27.00
2018-12-23T06:34:11.676Z,27.13
2018-12-23T06:34:47.711Z,24.70
2018-12-23T06:35:23.718Z,26.00
2018-12-23T06:35:59.788Z,23.87
2018-12-23T06:36:35.813Z,25.50
2018-12-23T06:37:12.017Z,26.77
2018-12-23T06:37:48.036Z,23.85
2018-12-23T06:38:24.214Z,26.55
2018-12-23T06:39:00.601Z,24.57
2018-12-23T06:39:36.846Z,30.00
2018-12-23T06:40:13.128Z,27.50
2018-12-23T06:40:49.380Z,27.30
2018-12-23T06:41:25.790Z,24.10
2018-12-23T06:42:02.394Z,25.35
2018-12-23T06:42:39.334Z,25.52
2018-12-23T06:43:16.360Z,21.20
2018-12-23T06:43:52.444Z,25.57
2018-12-23T06:44:28.496Z,24.00
2018-12-23T06:45:05.918Z,23.67
2018-12-23T06:45:41.936Z,24.37
2018-12-23T06:46:17.986Z,23.05
2018-12-23T06:46:54.096Z,23.52
2018-12-23T06:47:30.148Z,24.10
2018-12-23T06:48:06.171Z,24.07
2018-12-23T06:48:42.580Z,22.60
2018-12-23T06:49:18.600Z,22.85
2018-12-23T06:49:54.705Z,21.50
2018-12-23T06:50:30.812Z,19.62
2018-12-23T06:51:06.836Z,20.82
2018-12-23T06:51:42.874Z,24.23
2018-12-23T06:52:18.942Z,22.85
2018-12-23T06:52:54.992Z,24.27
2018-12-23T06:53:31.034Z,20.50
2018-12-23T06:54:07.098Z,24.80
2018-12-23T06:54:43.366Z,23.60
2018-12-23T06:55:19.452Z,22.95
2018-12-23T06:55:55.476Z,23.67
2018-12-23T06:56:31.586Z,23.05
2018-12-23T06:57:07.664Z,23.98
2018-12-23T06:57:43.790Z,19.55
2018-12-23T06:58:20.298Z,22.82
2018-12-23T06:58:56.360Z,20.95
2018-12-23T06:59:32.360Z,25.37
2018-12-23T07:00:09.554Z,21.77
2018-12-23T07:00:45.568Z,22.25
2018-12-23T07:01:21.562Z,21.42
2018-12-23T07:01:57.590Z,24.63
2018-12-23T07:02:34.424Z,19.48
2018-12-23T07:03:10.444Z,23.27
2018-12-23T07:03:46.854Z,21.97
2018-12-23T07:04:22.902Z,20.27
2018-12-23T07:04:59.272Z,18.98
2018-12-23T07:05:35.421Z,20.43
2018-12-23T07:06:11.468Z,21.02
2018-12-23T07:06:47.500Z,19.80
2018-12-23T07:07:23.543Z,20.00
2018-12-23T07:07:59.592Z,20.37
2018-12-23T07:08:35.598Z,19.62
2018-12-23T07:09:11.682Z,17.17
2018-12-23T07:09:47.704Z,21.05
2018-12-23T07:10:23.750Z,16.32
2018-12-23T07:10:59.802Z,18.15
2018-12-23T07:11:35.847Z,18.80
2018-12-23T07:12:11.915Z,17.30
2018-12-23T07:12:47.976Z,16.30
2018-12-23T07:13:24.020Z,18.20
2018-12-23T07:14:00.262Z,15.08
2018-12-23T07:14:36.666Z,16.80
2018-12-23T07:15:12.711Z,14.33
2018-12-23T07:15:48.838Z,16.67
2018-12-23T07:16:24.865Z,14.65
2018-12-23T07:17:01.085Z,12.80
2018-12-23T07:17:37.423Z,13.00
2018-12-23T07:18:13.548Z,14.23
2018-12-23T07:18:50.090Z,14.65
2018-12-23T07:19:26.374Z,13.60
2018-12-23T07:20:02.562Z,11.78
2018-12-23T07:20:39.559Z,17.60
2018-12-23T07:21:16.171Z,14.38
2018-12-23T07:21:52.461Z,13.22
2018-12-23T07:22:28.664Z,13.05
2018-12-23T07:23:05.337Z,15.13
2018-12-23T07:23:42.631Z,11.97
2018-12-23T07:24:19.120Z,13.08
2018-12-23T07:24:56.861Z,13.35
2018-12-23T07:25:33.032Z,11.33
2018-12-23T07:26:09.145Z,12.25
2018-12-23T07:26:45.774Z,12.05
2018-12-23T07:27:22.510Z,12.75
2018-12-23T07:27:59.796Z,12.80
2018-12-23T07:28:36.386Z,12.37
2018-12-23T07:29:13.394Z,10.53
2018-12-23T07:29:49.690Z,12.30
2018-12-23T07:30:26.930Z,11.40
2018-12-23T07:31:03.568Z,11.50
2018-12-23T07:31:39.920Z,12.43
2018-12-23T07:32:17.010Z,12.13
2018-12-23T07:32:53.260Z,12.03
2018-12-23T07:33:29.374Z,11.28
2018-12-23T07:34:05.636Z,11.10
2018-12-23T07:34:42.031Z,13.80
2018-12-23T07:35:18.336Z,11.43
2018-12-23T07:35:54.822Z,12.90
2018-12-23T07:36:31.086Z,12.73
2018-12-23T07:37:07.412Z,11.95
2018-12-23T07:37:44.434Z,10.75
2018-12-23T07:38:21.089Z,11.60
2018-12-23T07:38:58.143Z,11.57
2018-12-23T07:39:34.552Z,11.95
2018-12-23T07:40:11.934Z,13.58
2018-12-23T07:40:48.165Z,12.50
2018-12-23T07:41:24.745Z,11.70
2018-12-23T07:42:01.727Z,11.25
2018-12-23T07:42:37.926Z,10.13
2018-12-23T07:43:14.679Z,11.73
2018-12-23T07:43:52.587Z,14.68
2018-12-23T07:44:31.405Z,12.25
2018-12-23T07:45:08.406Z,12.85
2018-12-23T07:45:44.646Z,11.78
2018-12-23T07:46:21.062Z,13.65
2018-12-23T07:46:58.094Z,11.50
2018-12-23T07:47:34.204Z,10.63